Pathfinder — WDD7777 — position and weather

sailwx.info

Track history (hours):
 
Tides and Currents Weather Stations Pressure Air Temp Water Temp Dewpoint Dewpoint Depression Visibility Wind Speed Wind Dir Waves Ship Positions

Pathfinder

Owner: Milton Point LLC, Norfolk, VA. More information available from US FCC via Universal Licensing System and Coast Guard Vessel Documentation Center.

Last reported at 2017-Oct-19 10:59 UTC. Time now 2017-Oct-19 11:13 UTC.
Position N 40°46' W 073°51'.

Length 31 m; draft 4.1 m.

Type: Towing. MMSI: 367191190.

Date/timePositionNaut miles runAvg speedWind from/ knotsBaromVisibWave heightAir tempDewpointWater temp
2017-Oct-19 10:59N 40°46' W 073°51'0 0.0
2017-Oct-19 10:29N 40°46' W 073°51'0 0.0
2017-Oct-19 10:00N 40°46' W 073°51'0 0.0
2017-Oct-19 09:30N 40°46' W 073°51'0 0.0
2017-Oct-19 09:00N 40°46' W 073°51'0 0.0
2017-Oct-19 08:30N 40°46' W 073°51'0 0.0
2017-Oct-19 08:00N 40°46' W 073°51'0 0.0
2017-Oct-19 07:30N 40°46' W 073°51'0 0.0
2017-Oct-19 07:00N 40°46' W 073°51'0 0.0
2017-Oct-19 06:29N 40°46' W 073°51'0 0.0
2017-Oct-19 06:00N 40°46' W 073°51'0 0.0
2017-Oct-19 05:30N 40°46' W 073°51'0 0.0
2017-Oct-19 05:00N 40°46' W 073°51'0 0.0
2017-Oct-19 04:30N 40°46' W 073°51'0 0.0
2017-Oct-19 04:00N 40°46' W 073°51'0 0.0
2017-Oct-19 03:30N 40°46' W 073°51'0 0.0
2017-Oct-19 03:00N 40°46' W 073°51'0 0.0
2017-Oct-19 02:29N 40°46' W 073°51'0 0.0
2017-Oct-19 02:00N 40°46' W 073°51'0 0.0
2017-Oct-19 01:28N 40°46' W 073°51'0 0.0
2017-Oct-19 00:52N 40°46' W 073°51'0 0.1
2017-Oct-19 00:30N 40°46' W 073°51'3 4.2
2017-Oct-18 23:52N 40°48' W 073°53'2 6.7
2017-Oct-18 23:30N 40°47' W 073°56'3 7.0
2017-Oct-18 23:00N 40°44' W 073°58'3 6.3
2017-Oct-18 22:30N 40°41' W 074°01'2 4.9
2017-Oct-18 22:00N 40°40' W 074°03'3 5.5
2017-Oct-18 21:30N 40°39' W 074°07'3 5.2
2017-Oct-18 21:00N 40°39' W 074°10'1 2.3
2017-Oct-18 20:29N 40°38' W 074°12'1 2.8
2017-Oct-18 20:00N 40°39' W 074°10'3 6.1
2017-Oct-18 19:30N 40°39' W 074°06'3 5.4
2017-Oct-18 19:00N 40°40' W 074°03'3 6.5
2017-Oct-18 18:30N 40°42' W 073°60'3 6.7
2017-Oct-18 18:00N 40°45' W 073°58'4 8.1
2017-Oct-18 17:30N 40°48' W 073°54'2 4.9
2017-Oct-18 17:00N 40°47' W 073°51'0 1.0
2017-Oct-18 16:30N 40°46' W 073°51'0 0.0
2017-Oct-18 16:00N 40°46' W 073°51'0 0.0
2017-Oct-18 15:30N 40°46' W 073°51'0 0.0
2017-Oct-18 15:00N 40°46' W 073°51'0 0.0
2017-Oct-18 13:59N 40°46' W 073°51'0 0.1
2017-Oct-18 13:28N 40°46' W 073°51'0 0.1
2017-Oct-18 12:59N 40°46' W 073°51'0 0.0
2017-Oct-18 12:30N 40°46' W 073°51'0 0.0
2017-Oct-18 12:00N 40°46' W 073°51'0 0.0
2017-Oct-18 11:30N 40°46' W 073°51'0 0.0
2017-Oct-18 11:00N 40°46' W 073°51'0 0.0
2017-Oct-18 10:30N 40°46' W 073°51'0 0.0
2017-Oct-18 10:00N 40°46' W 073°51'0 0.0
2017-Oct-18 09:30N 40°46' W 073°51'0 0.0
2017-Oct-18 09:00N 40°46' W 073°51'0 0.0
2017-Oct-18 08:30N 40°46' W 073°51'0 0.0
2017-Oct-18 08:00N 40°46' W 073°51'0 0.0
2017-Oct-18 07:30N 40°46' W 073°51'0 0.0
2017-Oct-18 07:00N 40°46' W 073°51'0 0.0
2017-Oct-18 06:30N 40°46' W 073°51'0 0.0
2017-Oct-18 05:59N 40°46' W 073°51'0 0.0
2017-Oct-18 05:29N 40°46' W 073°51'0 0.0
2017-Oct-18 05:00N 40°46' W 073°51'0 0.0
2017-Oct-18 04:30N 40°46' W 073°51'0 0.0
2017-Oct-18 04:00N 40°46' W 073°51'0 0.0
2017-Oct-18 03:29N 40°46' W 073°51'0 0.0
2017-Oct-18 03:00N 40°46' W 073°51'0 0.0
2017-Oct-18 02:30N 40°46' W 073°51'0 0.0
2017-Oct-18 02:00N 40°46' W 073°51'0 0.0
2017-Oct-18 01:29N 40°46' W 073°51'0 0.0
2017-Oct-18 01:00N 40°46' W 073°51'0 0.0
2017-Oct-18 00:30N 40°46' W 073°51'0 0.0
2017-Oct-18 00:00N 40°46' W 073°51'2 3.1
2017-Oct-17 23:30N 40°48' W 073°52'3 5.6
2017-Oct-17 23:00N 40°47' W 073°55'4 7.7
2017-Oct-17 22:30N 40°44' W 073°58'3 6.9
2017-Oct-17 22:00N 40°41' W 074°01'4 7.2
2017-Oct-17 21:30N 40°39' W 074°05'2 4.6
2017-Oct-17 21:00N 40°39' W 074°08'3 5.1
2017-Oct-17 20:30N 40°39' W 074°11'1 1.1
2017-Oct-17 20:00N 40°38' W 074°12'1 1.0
2017-Oct-17 19:30N 40°39' W 074°11'3 6.1
2017-Oct-17 19:00N 40°39' W 074°07'3 5.7
2017-Oct-17 18:30N 40°40' W 074°04'3 6.1
2017-Oct-17 18:00N 40°42' W 074°01'3 6.4
2017-Oct-17 17:30N 40°44' W 073°58'4 8.3
2017-Oct-17 17:00N 40°48' W 073°55'2 4.5
2017-Oct-17 16:30N 40°47' W 073°52'1 2.4
2017-Oct-17 16:00N 40°46' W 073°51'0 0.0
2017-Oct-17 15:30N 40°46' W 073°51'0 0.0
2017-Oct-17 15:00N 40°46' W 073°51'0 0.0
2017-Oct-17 14:30N 40°46' W 073°51'0 0.0
2017-Oct-17 14:00N 40°46' W 073°51'0 0.0
2017-Oct-17 13:30N 40°46' W 073°51'0 0.0
2017-Oct-17 13:00N 40°46' W 073°51'0 0.0
2017-Oct-17 12:30N 40°46' W 073°51'0 0.0
2017-Oct-17 12:00N 40°46' W 073°51'0 0.0
2017-Oct-17 11:30N 40°46' W 073°51'0 0.0
2017-Oct-17 11:00N 40°46' W 073°51'0 0.0
2017-Oct-17 10:30N 40°46' W 073°51'0 0.0
2017-Oct-17 10:00N 40°46' W 073°51'0 0.1
2017-Oct-17 09:30N 40°46' W 073°51'0 0.0
2017-Oct-17 09:00N 40°46' W 073°51'0 0.0
2017-Oct-17 08:30N 40°46' W 073°51'0 0.0
2017-Oct-17 08:00N 40°46' W 073°51'0 0.0
2017-Oct-17 07:30N 40°46' W 073°51'0 0.0
2017-Oct-17 07:00N 40°46' W 073°51'0 0.0
2017-Oct-17 06:30N 40°46' W 073°51'0 0.0
2017-Oct-17 06:00N 40°46' W 073°51'0 0.0
2017-Oct-17 05:30N 40°46' W 073°51'0 0.0
2017-Oct-17 04:59N 40°46' W 073°51'0 0.0
2017-Oct-17 04:30N 40°46' W 073°51'0 0.0
2017-Oct-17 04:00N 40°46' W 073°51'0 0.0
2017-Oct-17 03:30N 40°46' W 073°51'0 0.0
2017-Oct-17 03:00N 40°46' W 073°51'0 0.0
2017-Oct-17 02:30N 40°46' W 073°51'0 0.0
2017-Oct-17 01:59N 40°46' W 073°51'0 0.0
2017-Oct-17 01:30N 40°46' W 073°51'0 0.0
2017-Oct-17 01:00N 40°46' W 073°51'0 0.0
2017-Oct-17 00:30N 40°46' W 073°51'0 0.0
2017-Oct-17 00:00N 40°46' W 073°51'1 2.6
2017-Oct-16 23:30N 40°47' W 073°52'2 4.6
2017-Oct-16 22:59N 40°47' W 073°55'4 7.6
2017-Oct-16 22:30N 40°45' W 073°58'3 6.1
2017-Oct-16 22:00N 40°42' W 073°60'3 6.5
2017-Oct-16 21:30N 40°40' W 074°03'3 5.7
2017-Oct-16 21:00N 40°39' W 074°06'2 4.9
2017-Oct-16 20:30N 40°39' W 074°10'2 3.1
2017-Oct-16 20:00N 40°38' W 074°12'1 2.7
2017-Oct-16 19:30N 40°39' W 074°10'3 5.9
2017-Oct-16 19:00N 40°39' W 074°06'3 5.0
2017-Oct-16 18:30N 40°40' W 074°03'3 5.0
2017-Oct-16 18:00N 40°41' W 074°01'3 5.3
2017-Oct-16 17:30N 40°43' W 073°58'4 7.0
2017-Oct-16 17:00N 40°47' W 073°56'3 6.3
2017-Oct-16 16:30N 40°48' W 073°52'2 3.8
2017-Oct-16 15:59N 40°46' W 073°51'0 0.0
2017-Oct-16 15:30N 40°46' W 073°51'0 0.0
2017-Oct-16 15:00N 40°46' W 073°51'0 0.0
2017-Oct-16 14:30N 40°46' W 073°51'0 0.0
2017-Oct-16 13:30N 40°46' W 073°51'0 0.0
2017-Oct-16 13:00N 40°46' W 073°51'0 0.0
2017-Oct-16 12:30N 40°46' W 073°51'0 0.0
2017-Oct-16 11:59N 40°46' W 073°51'0 0.0
2017-Oct-16 11:29N 40°46' W 073°51'0 0.0
2017-Oct-16 11:00N 40°46' W 073°51'0 0.0
2017-Oct-16 10:30N 40°46' W 073°51'0 0.1
2017-Oct-16 10:00N 40°46' W 073°51'0 0.0
2017-Oct-16 09:21N 40°46' W 073°51'0 0.0
2017-Oct-16 08:59N 40°46' W 073°51'0 0.0
2017-Oct-16 08:20N 40°46' W 073°51'0 0.0
2017-Oct-16 07:57N 40°46' W 073°51'0 0.0
2017-Oct-16 07:30N 40°46' W 073°51'0 0.0
2017-Oct-16 06:28N 40°46' W 073°51'0 0.0
2017-Oct-16 05:59N 40°46' W 073°51'0 0.0
2017-Oct-16 05:29N 40°46' W 073°51'0 0.0
2017-Oct-16 05:00N 40°46' W 073°51'0 0.0
2017-Oct-16 04:29N 40°46' W 073°51'0 0.0
2017-Oct-16 04:00N 40°46' W 073°51'0 0.0
2017-Oct-16 03:30N 40°46' W 073°51'0 0.0
2017-Oct-16 03:00N 40°46' W 073°51'0 0.0
2017-Oct-16 02:30N 40°46' W 073°51'0 0.0
2017-Oct-16 01:59N 40°46' W 073°51'0 0.0
2017-Oct-16 01:30N 40°46' W 073°51'0 0.0
2017-Oct-16 01:00N 40°46' W 073°51'0 0.0
2017-Oct-16 00:30N 40°46' W 073°51'0 0.0
2017-Oct-16 00:00N 40°46' W 073°51'0 0.0
2017-Oct-15 23:30N 40°46' W 073°51'0 0.0
2017-Oct-15 23:00N 40°46' W 073°51'0 0.0
2017-Oct-15 22:30N 40°46' W 073°51'0 0.0
2017-Oct-15 22:00N 40°46' W 073°51'0 0.0
2017-Oct-15 21:30N 40°46' W 073°51'0 0.0
2017-Oct-15 20:59N 40°46' W 073°51'0 0.0
2017-Oct-15 20:30N 40°46' W 073°51'0 0.0
2017-Oct-15 20:00N 40°46' W 073°51'0 0.0
2017-Oct-15 19:30N 40°46' W 073°51'0 0.0
2017-Oct-15 19:00N 40°46' W 073°51'0 0.0
2017-Oct-15 18:29N 40°46' W 073°51'0 0.0
2017-Oct-15 18:00N 40°46' W 073°51'0 0.0
2017-Oct-15 17:30N 40°46' W 073°51'0 0.0
2017-Oct-15 17:00N 40°46' W 073°51'0 0.0
2017-Oct-15 16:03N 40°46' W 073°51'0 0.0
2017-Oct-15 16:00N 40°46' W 073°51'0 0.0
2017-Oct-15 15:30N 40°46' W 073°51'0 0.0
2017-Oct-15 15:00N 40°46' W 073°51'0 0.0
2017-Oct-15 14:00N 40°46' W 073°51'0 0.0
2017-Oct-15 13:30N 40°46' W 073°51'0 0.0
2017-Oct-15 13:00N 40°46' W 073°51'0 0.0
2017-Oct-15 12:30N 40°46' W 073°51'0 0.0
2017-Oct-15 11:59N 40°46' W 073°51'0 0.0
2017-Oct-15 11:30N 40°46' W 073°51'0 0.0
2017-Oct-15 11:00N 40°46' W 073°51'0 0.0
2017-Oct-15 10:30N 40°46' W 073°51'0 0.0
2017-Oct-15 10:00N 40°46' W 073°51'0 0.0
2017-Oct-15 09:30N 40°46' W 073°51'0 0.0
2017-Oct-15 09:00N 40°46' W 073°51'0 0.0
2017-Oct-15 08:30N 40°46' W 073°51'0 0.0
2017-Oct-15 08:00N 40°46' W 073°51'0 0.0
2017-Oct-15 07:30N 40°46' W 073°51'0 0.0
2017-Oct-15 07:00N 40°46' W 073°51'0 0.0
2017-Oct-15 06:30N 40°46' W 073°51'0 0.0
2017-Oct-15 06:00N 40°46' W 073°51'0 0.0
2017-Oct-15 05:30N 40°46' W 073°51'0 0.0
2017-Oct-15 05:00N 40°46' W 073°51'0 0.0
2017-Oct-15 04:30N 40°46' W 073°51'0 0.0
2017-Oct-15 04:00N 40°46' W 073°51'0 0.0
2017-Oct-15 03:30N 40°46' W 073°51'0 0.0
2017-Oct-15 02:59N 40°46' W 073°51'0 0.0
2017-Oct-15 02:30N 40°46' W 073°51'0 0.0
2017-Oct-15 01:59N 40°46' W 073°51'0 0.0
2017-Oct-15 01:30N 40°46' W 073°51'0 0.0
2017-Oct-15 01:00N 40°46' W 073°51'0 0.0
2017-Oct-15 00:30N 40°46' W 073°51'0 0.0
2017-Oct-15 00:00N 40°46' W 073°51'0 0.0
2017-Oct-14 23:30N 40°46' W 073°51'0 0.0
2017-Oct-14 22:57N 40°46' W 073°51'0 0.0
2017-Oct-14 22:29N 40°46' W 073°51'0 0.0
2017-Oct-14 21:59N 40°46' W 073°51'0 0.0
2017-Oct-14 21:30N 40°46' W 073°51'0 0.0
2017-Oct-14 20:47N 40°46' W 073°51'0 0.0
2017-Oct-14 20:30N 40°46' W 073°51'0 0.0
2017-Oct-14 20:00N 40°46' W 073°51'0 0.0
2017-Oct-14 19:29N 40°46' W 073°51'0 0.0
2017-Oct-14 19:00N 40°46' W 073°51'0 0.0
2017-Oct-14 18:27N 40°46' W 073°51'0 0.0
2017-Oct-14 17:57N 40°46' W 073°51'0 0.0
2017-Oct-14 17:30N 40°46' W 073°51'0 0.0
2017-Oct-14 17:00N 40°46' W 073°51'0 0.0
2017-Oct-14 16:29N 40°46' W 073°51'0 0.0
2017-Oct-14 16:00N 40°46' W 073°51'0 0.1
2017-Oct-14 15:30N 40°46' W 073°51'0 0.0
2017-Oct-14 15:00N 40°46' W 073°51'0 0.0
2017-Oct-14 14:30N 40°46' W 073°51'0 0.0
2017-Oct-14 14:00N 40°46' W 073°51'0 0.0
2017-Oct-14 13:30N 40°46' W 073°51'0 0.0
2017-Oct-14 12:59N 40°46' W 073°51'0 0.0
2017-Oct-14 12:30N 40°46' W 073°51'0 0.0
2017-Oct-14 11:59N 40°46' W 073°51'0 0.0
2017-Oct-14 11:30N 40°46' W 073°51'0 0.0
2017-Oct-14 10:59N 40°46' W 073°51'0 0.0
2017-Oct-14 10:30N 40°46' W 073°51'0 0.0
2017-Oct-14 09:58N 40°46' W 073°51'0 0.0
2017-Oct-14 09:30N 40°46' W 073°51'0 0.0
2017-Oct-14 08:59N 40°46' W 073°51'0 0.0
2017-Oct-14 08:30N 40°46' W 073°51'1 2.6
2017-Oct-14 08:00N 40°47' W 073°52'3 5.2
2017-Oct-14 07:29N 40°47' W 073°55'4 8.0
2017-Oct-14 07:00N 40°44' W 073°58'4 7.2
2017-Oct-14 06:30N 40°41' W 074°01'3 5.1
2017-Oct-14 06:00N 40°40' W 074°04'2 4.4
2017-Oct-14 05:30N 40°39' W 074°06'2 4.3
2017-Oct-14 05:00N 40°39' W 074°09'2 3.4
2017-Oct-14 04:29N 40°38' W 074°12'1 2.3
2017-Oct-14 04:00N 40°39' W 074°10'2 4.8
2017-Oct-14 03:30N 40°39' W 074°07'2 4.8
2017-Oct-14 03:00N 40°40' W 074°04'3 5.5
2017-Oct-14 02:30N 40°41' W 074°01'3 6.2
2017-Oct-14 02:00N 40°43' W 073°58'4 7.4
2017-Oct-14 01:30N 40°47' W 073°56'3 5.7
2017-Oct-14 01:00N 40°48' W 073°53'2 3.7
2017-Oct-14 00:30N 40°47' W 073°51'0 0.9
2017-Oct-14 00:00N 40°46' W 073°51'0 0.0
2017-Oct-13 23:29N 40°46' W 073°51'0 0.0
2017-Oct-13 23:00N 40°46' W 073°51'0 0.0
2017-Oct-13 22:29N 40°46' W 073°51'0 0.1
2017-Oct-13 21:59N 40°46' W 073°51'0 0.1
2017-Oct-13 21:30N 40°46' W 073°51'0 0.0
2017-Oct-13 21:00N 40°46' W 073°51'0 0.0
2017-Oct-13 20:30N 40°46' W 073°51'0 0.0
2017-Oct-13 20:00N 40°46' W 073°51'0 0.0
2017-Oct-13 19:29N 40°46' W 073°51'0 0.0
2017-Oct-13 18:58N 40°46' W 073°51'0 0.0
2017-Oct-13 18:30N 40°46' W 073°51'0 0.0
2017-Oct-13 18:00N 40°46' W 073°51'0 0.0
2017-Oct-13 16:59N 40°46' W 073°51'0 0.0
2017-Oct-13 16:30N 40°46' W 073°51'0 0.0
2017-Oct-13 16:00N 40°46' W 073°51'0 0.0
2017-Oct-13 15:30N 40°46' W 073°51'0 0.0
2017-Oct-13 15:00N 40°46' W 073°51'0 0.0
2017-Oct-13 14:30N 40°46' W 073°51'0 0.0
2017-Oct-13 14:00N 40°46' W 073°51'0 0.0
2017-Oct-13 13:29N 40°46' W 073°51'0 0.0
2017-Oct-13 13:00N 40°46' W 073°51'0 0.0
2017-Oct-13 12:30N 40°46' W 073°51'0 0.0
2017-Oct-13 12:00N 40°46' W 073°51'0 0.0
2017-Oct-13 11:30N 40°46' W 073°51'0 0.0
2017-Oct-13 11:00N 40°46' W 073°51'0 0.0
2017-Oct-13 10:30N 40°46' W 073°51'0 0.0
2017-Oct-13 10:00N 40°46' W 073°51'0 0.0
2017-Oct-13 09:30N 40°46' W 073°51'0 0.0
2017-Oct-13 09:00N 40°46' W 073°51'0 0.0
2017-Oct-13 08:30N 40°46' W 073°51'0 0.0
2017-Oct-13 08:00N 40°46' W 073°51'0 0.0
2017-Oct-13 07:29N 40°46' W 073°51'0 0.7
2017-Oct-13 07:00N 40°46' W 073°51'3 4.9
2017-Oct-13 06:28N 40°48' W 073°54'4 8.0
2017-Oct-13 06:00N 40°46' W 073°57'3 6.8
2017-Oct-13 05:30N 40°42' W 073°59'3 6.3
2017-Oct-13 05:00N 40°40' W 074°02'3 5.0
2017-Oct-13 04:30N 40°39' W 074°05'3 6.3
2017-Oct-13 04:00N 40°39' W 074°09'2 3.9
2017-Oct-13 03:30N 40°38' W 074°12'2 3.1
2017-Oct-13 03:00N 40°39' W 074°10'3 5.0
2017-Oct-13 02:30N 40°39' W 074°06'2 4.4
2017-Oct-13 02:00N 40°40' W 074°04'3 5.7
2017-Oct-13 01:30N 40°41' W 074°01'3 5.8
2017-Oct-13 01:00N 40°44' W 073°58'4 7.0
2017-Oct-13 00:29N 40°47' W 073°56'3 5.6
2017-Oct-13 00:00N 40°48' W 073°53'2 4.1
2017-Oct-12 23:30N 40°46' W 073°51'0 0.1
2017-Oct-12 23:00N 40°46' W 073°51'0 0.0
2017-Oct-12 22:30N 40°46' W 073°51'0 0.0
2017-Oct-12 21:59N 40°46' W 073°51'0 0.0
2017-Oct-12 21:30N 40°46' W 073°51'0 0.0
2017-Oct-12 21:00N 40°46' W 073°51'0 0.0
2017-Oct-12 20:30N 40°46' W 073°51'0 0.0
2017-Oct-12 20:00N 40°46' W 073°51'0 0.0
2017-Oct-12 19:30N 40°46' W 073°51'0 0.0
2017-Oct-12 19:00N 40°46' W 073°51'0 0.0
2017-Oct-12 18:30N 40°46' W 073°51'0 0.0
2017-Oct-12 17:59N 40°46' W 073°51'0 0.0
2017-Oct-12 17:29N 40°46' W 073°51'0 0.0
2017-Oct-12 17:00N 40°46' W 073°51'0 0.0
2017-Oct-12 16:30N 40°46' W 073°51'0 0.0
2017-Oct-12 16:00N 40°46' W 073°51'0 0.0
2017-Oct-12 15:28N 40°46' W 073°51'0 0.0
2017-Oct-12 15:00N 40°46' W 073°51'0 0.0
2017-Oct-12 14:28N 40°46' W 073°51'0 0.0
2017-Oct-12 14:00N 40°46' W 073°51'0 0.0
2017-Oct-12 13:29N 40°46' W 073°51'0 0.0
2017-Oct-12 12:59N 40°46' W 073°51'0 0.0
2017-Oct-12 12:30N 40°46' W 073°51'0 0.0
2017-Oct-12 12:00N 40°46' W 073°51'0 0.0
2017-Oct-12 11:30N 40°46' W 073°51'0 0.0
2017-Oct-12 11:00N 40°46' W 073°51'0 0.0
2017-Oct-12 10:30N 40°46' W 073°51'0 0.0
2017-Oct-12 09:59N 40°46' W 073°51'0 0.0
2017-Oct-12 09:30N 40°46' W 073°51'0 0.0
2017-Oct-12 09:00N 40°46' W 073°51'0 0.0
2017-Oct-12 08:30N 40°46' W 073°51'0 0.0
2017-Oct-12 08:00N 40°46' W 073°51'0 0.0
2017-Oct-12 07:24N 40°46' W 073°51'0 0.0
2017-Oct-12 07:00N 40°46' W 073°51'0 0.0
2017-Oct-12 06:30N 40°46' W 073°51'1 2.8
2017-Oct-12 06:00N 40°47' W 073°52'3 5.6
2017-Oct-12 05:27N 40°47' W 073°56'4 7.7
2017-Oct-12 04:59N 40°44' W 073°58'4 7.2
2017-Oct-12 04:30N 40°41' W 074°01'3 5.9
2017-Oct-12 04:00N 40°39' W 074°04'2 4.7
2017-Oct-12 03:30N 40°39' W 074°07'2 4.6
2017-Oct-12 03:00N 40°39' W 074°10'1 2.3
2017-Oct-12 02:30N 40°38' W 074°12'1 2.4
2017-Oct-12 02:00N 40°39' W 074°10'3 5.2
2017-Oct-12 01:30N 40°39' W 074°07'2 4.9
2017-Oct-12 00:59N 40°40' W 074°04'3 5.6
2017-Oct-12 00:30N 40°41' W 074°01'3 5.9
2017-Oct-12 00:00N 40°43' W 073°58'4 7.1
2017-Oct-11 23:29N 40°47' W 073°56'3 5.9
2017-Oct-11 23:00N 40°48' W 073°53'2 3.9
2017-Oct-11 22:30N 40°46' W 073°51'0 0.1
2017-Oct-11 20:43N 40°46' W 073°51'0 0.0
2017-Oct-11 20:30N 40°46' W 073°51'0 0.0
2017-Oct-11 20:00N 40°46' W 073°51'0 0.0
2017-Oct-11 19:30N 40°46' W 073°51'0 0.0
2017-Oct-11 19:00N 40°46' W 073°51'0 0.0
2017-Oct-11 18:30N 40°46' W 073°51'0 0.0
2017-Oct-11 18:00N 40°46' W 073°51'0 0.1
2017-Oct-11 17:30N 40°46' W 073°51'0 0.0
2017-Oct-11 17:00N 40°46' W 073°51'9 0.5
2017-Oct-11 00:00N 40°41' W 074°01'3 5.4
2017-Oct-10 23:30N 40°43' W 073°59'3 6.5
2017-Oct-10 23:00N 40°46' W 073°57'4 6.8
2017-Oct-10 22:29N 40°48' W 073°54'2 4.3
2017-Oct-10 22:00N 40°47' W 073°51'1 1.2
2017-Oct-10 21:30N 40°46' W 073°51'0 0.0
2017-Oct-10 21:00N 40°46' W 073°51'0 0.0
2017-Oct-10 20:30N 40°46' W 073°51'0 0.0
2017-Oct-10 20:00N 40°46' W 073°51'0 0.0
2017-Oct-10 19:30N 40°46' W 073°51'0 0.0
2017-Oct-10 19:00N 40°46' W 073°51'0 0.0
2017-Oct-10 18:30N 40°46' W 073°51'0 0.0
2017-Oct-10 18:00N 40°46' W 073°51'0 0.0
2017-Oct-10 17:30N 40°46' W 073°51'0 0.0
2017-Oct-10 17:00N 40°46' W 073°51'0 0.0
2017-Oct-10 16:30N 40°46' W 073°51'0 0.1
2017-Oct-10 16:00N 40°46' W 073°51'0 0.0
2017-Oct-10 15:11N 40°46' W 073°51'0 0.0
2017-Oct-10 15:00N 40°46' W 073°51'0 0.0
2017-Oct-10 13:59N 40°46' W 073°51'0 0.0
2017-Oct-10 13:30N 40°46' W 073°51'0 0.0
2017-Oct-10 12:58N 40°46' W 073°51'0 0.0
2017-Oct-10 12:09N 40°46' W 073°51'0 0.0
2017-Oct-10 11:57N 40°46' W 073°51'0 0.0
2017-Oct-10 11:30N 40°46' W 073°51'0 0.0
2017-Oct-10 11:00N 40°46' W 073°51'0 0.0
2017-Oct-10 10:30N 40°46' W 073°51'0 0.0
2017-Oct-10 09:59N 40°46' W 073°51'0 0.0
2017-Oct-10 09:30N 40°46' W 073°51'0 0.0
2017-Oct-10 09:00N 40°46' W 073°51'0 0.0
2017-Oct-10 08:30N 40°46' W 073°51'0 0.0
2017-Oct-10 08:00N 40°46' W 073°51'0 0.0
2017-Oct-10 07:30N 40°46' W 073°51'0 0.0
2017-Oct-10 06:59N 40°46' W 073°51'0 0.0
2017-Oct-10 06:30N 40°46' W 073°51'0 0.0
2017-Oct-10 06:00N 40°46' W 073°51'0 0.0
2017-Oct-10 05:30N 40°46' W 073°51'0 0.0
2017-Oct-10 05:00N 40°46' W 073°51'0 0.0
2017-Oct-10 04:29N 40°46' W 073°51'0 0.0
2017-Oct-10 04:00N 40°46' W 073°51'0 0.0
2017-Oct-10 03:30N 40°46' W 073°51'0 0.0
2017-Oct-10 03:00N 40°46' W 073°51'0 0.0
2017-Oct-10 02:30N 40°46' W 073°51'0 0.0
2017-Oct-10 02:00N 40°46' W 073°51'0 0.0
2017-Oct-10 01:30N 40°46' W 073°51'0 0.0
2017-Oct-10 01:00N 40°46' W 073°51'0 0.0
2017-Oct-10 00:30N 40°46' W 073°51'0 0.0
2017-Oct-10 00:00N 40°46' W 073°51'0 0.0
2017-Oct-09 23:30N 40°46' W 073°51'0 0.0
2017-Oct-09 23:00N 40°46' W 073°51'0 0.0
2017-Oct-09 22:30N 40°46' W 073°51'0 0.0
2017-Oct-09 22:00N 40°46' W 073°51'0 0.0
2017-Oct-09 21:30N 40°46' W 073°51'0 0.0
2017-Oct-09 21:00N 40°46' W 073°51'0 0.0
2017-Oct-09 20:30N 40°46' W 073°51'0 0.0
2017-Oct-09 20:00N 40°46' W 073°51'0 0.0
2017-Oct-09 19:30N 40°46' W 073°51'0 0.0
2017-Oct-09 18:57N 40°46' W 073°51'0 0.0
2017-Oct-09 18:23N 40°46' W 073°51'0 0.1
2017-Oct-09 17:59N 40°46' W 073°51'0 0.0
2017-Oct-09 17:30N 40°46' W 073°51'0 0.0
2017-Oct-09 17:00N 40°46' W 073°51'0 0.0
2017-Oct-09 16:30N 40°46' W 073°51'0 0.0
2017-Oct-09 16:00N 40°46' W 073°51'0 0.0
2017-Oct-09 15:30N 40°46' W 073°51'0 0.0
2017-Oct-09 15:00N 40°46' W 073°51'0 0.0
2017-Oct-09 14:28N 40°46' W 073°51'0 0.0
2017-Oct-09 14:00N 40°46' W 073°51'0 0.0
2017-Oct-09 13:21N 40°46' W 073°51'0 0.0
2017-Oct-09 12:58N 40°46' W 073°51'0 0.0
2017-Oct-09 12:29N 40°46' W 073°51'0 0.0
2017-Oct-09 12:00N 40°46' W 073°51'0 0.0
2017-Oct-09 11:30N 40°46' W 073°51'0 0.0
2017-Oct-09 11:00N 40°46' W 073°51'  
Track history (hours):
 
Tides and Currents Weather Stations Pressure Air Temp Water Temp Dewpoint Dewpoint Depression Visibility Wind Speed Wind Dir Waves Ship Positions

Pathfinder

Owner: Milton Point LLC, Norfolk, VA. More information available from US FCC via Universal Licensing System and Coast Guard Vessel Documentation Center.

Last reported at 2017-Oct-19 10:59 UTC. Time now 2017-Oct-19 11:13 UTC.
Position N 40°46' W 073°51'.

Length 31 m; draft 4.1 m.

Type: Towing. MMSI: 367191190.

Date/timePositionNaut miles runAvg speedWind from/ knotsBaromVisibWave heightAir tempDewpointWater temp
2017-Oct-19 10:59N 40°46' W 073°51'0 0.0
2017-Oct-19 10:29N 40°46' W 073°51'0 0.0
2017-Oct-19 10:00N 40°46' W 073°51'0 0.0
2017-Oct-19 09:30N 40°46' W 073°51'0 0.0
2017-Oct-19 09:00N 40°46' W 073°51'0 0.0
2017-Oct-19 08:30N 40°46' W 073°51'0 0.0
2017-Oct-19 08:00N 40°46' W 073°51'0 0.0
2017-Oct-19 07:30N 40°46' W 073°51'0 0.0
2017-Oct-19 07:00N 40°46' W 073°51'0 0.0
2017-Oct-19 06:29N 40°46' W 073°51'0 0.0
2017-Oct-19 06:00N 40°46' W 073°51'0 0.0
2017-Oct-19 05:30N 40°46' W 073°51'0 0.0
2017-Oct-19 05:00N 40°46' W 073°51'0 0.0
2017-Oct-19 04:30N 40°46' W 073°51'0 0.0
2017-Oct-19 04:00N 40°46' W 073°51'0 0.0
2017-Oct-19 03:30N 40°46' W 073°51'0 0.0
2017-Oct-19 03:00N 40°46' W 073°51'0 0.0
2017-Oct-19 02:29N 40°46' W 073°51'0 0.0
2017-Oct-19 02:00N 40°46' W 073°51'0 0.0
2017-Oct-19 01:28N 40°46' W 073°51'0 0.0
2017-Oct-19 00:52N 40°46' W 073°51'0 0.1
2017-Oct-19 00:30N 40°46' W 073°51'3 4.2
2017-Oct-18 23:52N 40°48' W 073°53'2 6.7
2017-Oct-18 23:30N 40°47' W 073°56'3 7.0
2017-Oct-18 23:00N 40°44' W 073°58'3 6.3
2017-Oct-18 22:30N 40°41' W 074°01'2 4.9
2017-Oct-18 22:00N 40°40' W 074°03'3 5.5
2017-Oct-18 21:30N 40°39' W 074°07'3 5.2
2017-Oct-18 21:00N 40°39' W 074°10'1 2.3
2017-Oct-18 20:29N 40°38' W 074°12'1 2.8
2017-Oct-18 20:00N 40°39' W 074°10'3 6.1
2017-Oct-18 19:30N 40°39' W 074°06'3 5.4
2017-Oct-18 19:00N 40°40' W 074°03'3 6.5
2017-Oct-18 18:30N 40°42' W 073°60'3 6.7
2017-Oct-18 18:00N 40°45' W 073°58'4 8.1
2017-Oct-18 17:30N 40°48' W 073°54'2 4.9
2017-Oct-18 17:00N 40°47' W 073°51'0 1.0
2017-Oct-18 16:30N 40°46' W 073°51'0 0.0
2017-Oct-18 16:00N 40°46' W 073°51'0 0.0
2017-Oct-18 15:30N 40°46' W 073°51'0 0.0
2017-Oct-18 15:00N 40°46' W 073°51'0 0.0
2017-Oct-18 13:59N 40°46' W 073°51'0 0.1
2017-Oct-18 13:28N 40°46' W 073°51'0 0.1
2017-Oct-18 12:59N 40°46' W 073°51'0 0.0
2017-Oct-18 12:30N 40°46' W 073°51'0 0.0
2017-Oct-18 12:00N 40°46' W 073°51'0 0.0
2017-Oct-18 11:30N 40°46' W 073°51'0 0.0
2017-Oct-18 11:00N 40°46' W 073°51'0 0.0
2017-Oct-18 10:30N 40°46' W 073°51'0 0.0
2017-Oct-18 10:00N 40°46' W 073°51'0 0.0
2017-Oct-18 09:30N 40°46' W 073°51'0 0.0
2017-Oct-18 09:00N 40°46' W 073°51'0 0.0
2017-Oct-18 08:30N 40°46' W 073°51'0 0.0
2017-Oct-18 08:00N 40°46' W 073°51'0 0.0
2017-Oct-18 07:30N 40°46' W 073°51'0 0.0
2017-Oct-18 07:00N 40°46' W 073°51'0 0.0
2017-Oct-18 06:30N 40°46' W 073°51'0 0.0
2017-Oct-18 05:59N 40°46' W 073°51'0 0.0
2017-Oct-18 05:29N 40°46' W 073°51'0 0.0
2017-Oct-18 05:00N 40°46' W 073°51'0 0.0
2017-Oct-18 04:30N 40°46' W 073°51'0 0.0
2017-Oct-18 04:00N 40°46' W 073°51'0 0.0
2017-Oct-18 03:29N 40°46' W 073°51'0 0.0
2017-Oct-18 03:00N 40°46' W 073°51'0 0.0
2017-Oct-18 02:30N 40°46' W 073°51'0 0.0
2017-Oct-18 02:00N 40°46' W 073°51'0 0.0
2017-Oct-18 01:29N 40°46' W 073°51'0 0.0
2017-Oct-18 01:00N 40°46' W 073°51'0 0.0
2017-Oct-18 00:30N 40°46' W 073°51'0 0.0
2017-Oct-18 00:00N 40°46' W 073°51'2 3.1
2017-Oct-17 23:30N 40°48' W 073°52'3 5.6
2017-Oct-17 23:00N 40°47' W 073°55'4 7.7
2017-Oct-17 22:30N 40°44' W 073°58'3 6.9
2017-Oct-17 22:00N 40°41' W 074°01'4 7.2
2017-Oct-17 21:30N 40°39' W 074°05'2 4.6
2017-Oct-17 21:00N 40°39' W 074°08'3 5.1
2017-Oct-17 20:30N 40°39' W 074°11'1 1.1
2017-Oct-17 20:00N 40°38' W 074°12'1 1.0
2017-Oct-17 19:30N 40°39' W 074°11'3 6.1
2017-Oct-17 19:00N 40°39' W 074°07'3 5.7
2017-Oct-17 18:30N 40°40' W 074°04'3 6.1
2017-Oct-17 18:00N 40°42' W 074°01'3 6.4
2017-Oct-17 17:30N 40°44' W 073°58'4 8.3
2017-Oct-17 17:00N 40°48' W 073°55'2 4.5
2017-Oct-17 16:30N 40°47' W 073°52'1 2.4
2017-Oct-17 16:00N 40°46' W 073°51'0 0.0
2017-Oct-17 15:30N 40°46' W 073°51'0 0.0
2017-Oct-17 15:00N 40°46' W 073°51'0 0.0
2017-Oct-17 14:30N 40°46' W 073°51'0 0.0
2017-Oct-17 14:00N 40°46' W 073°51'0 0.0
2017-Oct-17 13:30N 40°46' W 073°51'0 0.0
2017-Oct-17 13:00N 40°46' W 073°51'0 0.0
2017-Oct-17 12:30N 40°46' W 073°51'0 0.0
2017-Oct-17 12:00N 40°46' W 073°51'0 0.0
2017-Oct-17 11:30N 40°46' W 073°51'0 0.0
2017-Oct-17 11:00N 40°46' W 073°51'0 0.0
2017-Oct-17 10:30N 40°46' W 073°51'0 0.0
2017-Oct-17 10:00N 40°46' W 073°51'0 0.1
2017-Oct-17 09:30N 40°46' W 073°51'0 0.0
2017-Oct-17 09:00N 40°46' W 073°51'0 0.0
2017-Oct-17 08:30N 40°46' W 073°51'0 0.0
2017-Oct-17 08:00N 40°46' W 073°51'0 0.0
2017-Oct-17 07:30N 40°46' W 073°51'0 0.0
2017-Oct-17 07:00N 40°46' W 073°51'0 0.0
2017-Oct-17 06:30N 40°46' W 073°51'0 0.0
2017-Oct-17 06:00N 40°46' W 073°51'0 0.0
2017-Oct-17 05:30N 40°46' W 073°51'0 0.0
2017-Oct-17 04:59N 40°46' W 073°51'0 0.0
2017-Oct-17 04:30N 40°46' W 073°51'0 0.0
2017-Oct-17 04:00N 40°46' W 073°51'0 0.0
2017-Oct-17 03:30N 40°46' W 073°51'0 0.0
2017-Oct-17 03:00N 40°46' W 073°51'0 0.0
2017-Oct-17 02:30N 40°46' W 073°51'0 0.0
2017-Oct-17 01:59N 40°46' W 073°51'0 0.0
2017-Oct-17 01:30N 40°46' W 073°51'0 0.0
2017-Oct-17 01:00N 40°46' W 073°51'0 0.0
2017-Oct-17 00:30N 40°46' W 073°51'0 0.0
2017-Oct-17 00:00N 40°46' W 073°51'1 2.6
2017-Oct-16 23:30N 40°47' W 073°52'2 4.6
2017-Oct-16 22:59N 40°47' W 073°55'4 7.6
2017-Oct-16 22:30N 40°45' W 073°58'3 6.1
2017-Oct-16 22:00N 40°42' W 073°60'3 6.5
2017-Oct-16 21:30N 40°40' W 074°03'3 5.7
2017-Oct-16 21:00N 40°39' W 074°06'2 4.9
2017-Oct-16 20:30N 40°39' W 074°10'2 3.1
2017-Oct-16 20:00N 40°38' W 074°12'1 2.7
2017-Oct-16 19:30N 40°39' W 074°10'3 5.9
2017-Oct-16 19:00N 40°39' W 074°06'3 5.0
2017-Oct-16 18:30N 40°40' W 074°03'3 5.0
2017-Oct-16 18:00N 40°41' W 074°01'3 5.3
2017-Oct-16 17:30N 40°43' W 073°58'4 7.0
2017-Oct-16 17:00N 40°47' W 073°56'3 6.3
2017-Oct-16 16:30N 40°48' W 073°52'2 3.8
2017-Oct-16 15:59N 40°46' W 073°51'0 0.0
2017-Oct-16 15:30N 40°46' W 073°51'0 0.0
2017-Oct-16 15:00N 40°46' W 073°51'0 0.0
2017-Oct-16 14:30N 40°46' W 073°51'0 0.0
2017-Oct-16 13:30N 40°46' W 073°51'0 0.0
2017-Oct-16 13:00N 40°46' W 073°51'0 0.0
2017-Oct-16 12:30N 40°46' W 073°51'0 0.0
2017-Oct-16 11:59N 40°46' W 073°51'0 0.0
2017-Oct-16 11:29N 40°46' W 073°51'0 0.0
2017-Oct-16 11:00N 40°46' W 073°51'0 0.0
2017-Oct-16 10:30N 40°46' W 073°51'0 0.1
2017-Oct-16 10:00N 40°46' W 073°51'0 0.0
2017-Oct-16 09:21N 40°46' W 073°51'0 0.0
2017-Oct-16 08:59N 40°46' W 073°51'0 0.0
2017-Oct-16 08:20N 40°46' W 073°51'0 0.0
2017-Oct-16 07:57N 40°46' W 073°51'0 0.0
2017-Oct-16 07:30N 40°46' W 073°51'0 0.0
2017-Oct-16 06:28N 40°46' W 073°51'0 0.0
2017-Oct-16 05:59N 40°46' W 073°51'0 0.0
2017-Oct-16 05:29N 40°46' W 073°51'0 0.0
2017-Oct-16 05:00N 40°46' W 073°51'0 0.0
2017-Oct-16 04:29N 40°46' W 073°51'0 0.0
2017-Oct-16 04:00N 40°46' W 073°51'0 0.0
2017-Oct-16 03:30N 40°46' W 073°51'0 0.0
2017-Oct-16 03:00N 40°46' W 073°51'0 0.0
2017-Oct-16 02:30N 40°46' W 073°51'0 0.0
2017-Oct-16 01:59N 40°46' W 073°51'0 0.0
2017-Oct-16 01:30N 40°46' W 073°51'0 0.0
2017-Oct-16 01:00N 40°46' W 073°51'0 0.0
2017-Oct-16 00:30N 40°46' W 073°51'0 0.0
2017-Oct-16 00:00N 40°46' W 073°51'0 0.0
2017-Oct-15 23:30N 40°46' W 073°51'0 0.0
2017-Oct-15 23:00N 40°46' W 073°51'0 0.0
2017-Oct-15 22:30N 40°46' W 073°51'0 0.0
2017-Oct-15 22:00N 40°46' W 073°51'0 0.0
2017-Oct-15 21:30N 40°46' W 073°51'0 0.0
2017-Oct-15 20:59N 40°46' W 073°51'0 0.0
2017-Oct-15 20:30N 40°46' W 073°51'0 0.0
2017-Oct-15 20:00N 40°46' W 073°51'0 0.0
2017-Oct-15 19:30N 40°46' W 073°51'0 0.0
2017-Oct-15 19:00N 40°46' W 073°51'0 0.0
2017-Oct-15 18:29N 40°46' W 073°51'0 0.0
2017-Oct-15 18:00N 40°46' W 073°51'0 0.0
2017-Oct-15 17:30N 40°46' W 073°51'0 0.0
2017-Oct-15 17:00N 40°46' W 073°51'0 0.0
2017-Oct-15 16:03N 40°46' W 073°51'0 0.0
2017-Oct-15 16:00N 40°46' W 073°51'0 0.0
2017-Oct-15 15:30N 40°46' W 073°51'0 0.0
2017-Oct-15 15:00N 40°46' W 073°51'0 0.0
2017-Oct-15 14:00N 40°46' W 073°51'0 0.0
2017-Oct-15 13:30N 40°46' W 073°51'0 0.0
2017-Oct-15 13:00N 40°46' W 073°51'0 0.0
2017-Oct-15 12:30N 40°46' W 073°51'0 0.0
2017-Oct-15 11:59N 40°46' W 073°51'0 0.0
2017-Oct-15 11:30N 40°46' W 073°51'0 0.0
2017-Oct-15 11:00N 40°46' W 073°51'0 0.0
2017-Oct-15 10:30N 40°46' W 073°51'0 0.0
2017-Oct-15 10:00N 40°46' W 073°51'0 0.0
2017-Oct-15 09:30N 40°46' W 073°51'0 0.0
2017-Oct-15 09:00N 40°46' W 073°51'0 0.0
2017-Oct-15 08:30N 40°46' W 073°51'0 0.0
2017-Oct-15 08:00N 40°46' W 073°51'0 0.0
2017-Oct-15 07:30N 40°46' W 073°51'0 0.0
2017-Oct-15 07:00N 40°46' W 073°51'0 0.0
2017-Oct-15 06:30N 40°46' W 073°51'0 0.0
2017-Oct-15 06:00N 40°46' W 073°51'0 0.0
2017-Oct-15 05:30N 40°46' W 073°51'0 0.0
2017-Oct-15 05:00N 40°46' W 073°51'0 0.0
2017-Oct-15 04:30N 40°46' W 073°51'0 0.0
2017-Oct-15 04:00N 40°46' W 073°51'0 0.0
2017-Oct-15 03:30N 40°46' W 073°51'0 0.0
2017-Oct-15 02:59N 40°46' W 073°51'0 0.0
2017-Oct-15 02:30N 40°46' W 073°51'0 0.0
2017-Oct-15 01:59N 40°46' W 073°51'0 0.0
2017-Oct-15 01:30N 40°46' W 073°51'0 0.0
2017-Oct-15 01:00N 40°46' W 073°51'0 0.0
2017-Oct-15 00:30N 40°46' W 073°51'0 0.0
2017-Oct-15 00:00N 40°46' W 073°51'0 0.0
2017-Oct-14 23:30N 40°46' W 073°51'0 0.0
2017-Oct-14 22:57N 40°46' W 073°51'0 0.0
2017-Oct-14 22:29N 40°46' W 073°51'0 0.0
2017-Oct-14 21:59N 40°46' W 073°51'0 0.0
2017-Oct-14 21:30N 40°46' W 073°51'0 0.0
2017-Oct-14 20:47N 40°46' W 073°51'0 0.0
2017-Oct-14 20:30N 40°46' W 073°51'0 0.0
2017-Oct-14 20:00N 40°46' W 073°51'0 0.0
2017-Oct-14 19:29N 40°46' W 073°51'0 0.0
2017-Oct-14 19:00N 40°46' W 073°51'0 0.0
2017-Oct-14 18:27N 40°46' W 073°51'0 0.0
2017-Oct-14 17:57N 40°46' W 073°51'0 0.0
2017-Oct-14 17:30N 40°46' W 073°51'0 0.0
2017-Oct-14 17:00N 40°46' W 073°51'0 0.0
2017-Oct-14 16:29N 40°46' W 073°51'0 0.0
2017-Oct-14 16:00N 40°46' W 073°51'0 0.1
2017-Oct-14 15:30N 40°46' W 073°51'0 0.0
2017-Oct-14 15:00N 40°46' W 073°51'0 0.0
2017-Oct-14 14:30N 40°46' W 073°51'0 0.0
2017-Oct-14 14:00N 40°46' W 073°51'0 0.0
2017-Oct-14 13:30N 40°46' W 073°51'0 0.0
2017-Oct-14 12:59N 40°46' W 073°51'0 0.0
2017-Oct-14 12:30N 40°46' W 073°51'0 0.0
2017-Oct-14 11:59N 40°46' W 073°51'0 0.0
2017-Oct-14 11:30N 40°46' W 073°51'0 0.0
2017-Oct-14 10:59N 40°46' W 073°51'0 0.0
2017-Oct-14 10:30N 40°46' W 073°51'0 0.0
2017-Oct-14 09:58N 40°46' W 073°51'0 0.0
2017-Oct-14 09:30N 40°46' W 073°51'0 0.0
2017-Oct-14 08:59N 40°46' W 073°51'0 0.0
2017-Oct-14 08:30N 40°46' W 073°51'1 2.6
2017-Oct-14 08:00N 40°47' W 073°52'3 5.2
2017-Oct-14 07:29N 40°47' W 073°55'4 8.0
2017-Oct-14 07:00N 40°44' W 073°58'4 7.2
2017-Oct-14 06:30N 40°41' W 074°01'3 5.1
2017-Oct-14 06:00N 40°40' W 074°04'2 4.4
2017-Oct-14 05:30N 40°39' W 074°06'2 4.3
2017-Oct-14 05:00N 40°39' W 074°09'2 3.4
2017-Oct-14 04:29N 40°38' W 074°12'1 2.3
2017-Oct-14 04:00N 40°39' W 074°10'2 4.8
2017-Oct-14 03:30N 40°39' W 074°07'2 4.8
2017-Oct-14 03:00N 40°40' W 074°04'3 5.5
2017-Oct-14 02:30N 40°41' W 074°01'3 6.2
2017-Oct-14 02:00N 40°43' W 073°58'4 7.4
2017-Oct-14 01:30N 40°47' W 073°56'3 5.7
2017-Oct-14 01:00N 40°48' W 073°53'2 3.7
2017-Oct-14 00:30N 40°47' W 073°51'0 0.9
2017-Oct-14 00:00N 40°46' W 073°51'0 0.0
2017-Oct-13 23:29N 40°46' W 073°51'0 0.0
2017-Oct-13 23:00N 40°46' W 073°51'0 0.0
2017-Oct-13 22:29N 40°46' W 073°51'0 0.1
2017-Oct-13 21:59N 40°46' W 073°51'0 0.1
2017-Oct-13 21:30N 40°46' W 073°51'0 0.0
2017-Oct-13 21:00N 40°46' W 073°51'0 0.0
2017-Oct-13 20:30N 40°46' W 073°51'0 0.0
2017-Oct-13 20:00N 40°46' W 073°51'0 0.0
2017-Oct-13 19:29N 40°46' W 073°51'0 0.0
2017-Oct-13 18:58N 40°46' W 073°51'0 0.0
2017-Oct-13 18:30N 40°46' W 073°51'0 0.0
2017-Oct-13 18:00N 40°46' W 073°51'0 0.0
2017-Oct-13 16:59N 40°46' W 073°51'0 0.0
2017-Oct-13 16:30N 40°46' W 073°51'0 0.0
2017-Oct-13 16:00N 40°46' W 073°51'0 0.0
2017-Oct-13 15:30N 40°46' W 073°51'0 0.0
2017-Oct-13 15:00N 40°46' W 073°51'0 0.0
2017-Oct-13 14:30N 40°46' W 073°51'0 0.0
2017-Oct-13 14:00N 40°46' W 073°51'0 0.0
2017-Oct-13 13:29N 40°46' W 073°51'0 0.0
2017-Oct-13 13:00N 40°46' W 073°51'0 0.0
2017-Oct-13 12:30N 40°46' W 073°51'0 0.0
2017-Oct-13 12:00N 40°46' W 073°51'0 0.0
2017-Oct-13 11:30N 40°46' W 073°51'0 0.0
2017-Oct-13 11:00N 40°46' W 073°51'0 0.0
2017-Oct-13 10:30N 40°46' W 073°51'0 0.0
2017-Oct-13 10:00N 40°46' W 073°51'0 0.0
2017-Oct-13 09:30N 40°46' W 073°51'0 0.0
2017-Oct-13 09:00N 40°46' W 073°51'0 0.0
2017-Oct-13 08:30N 40°46' W 073°51'0 0.0
2017-Oct-13 08:00N 40°46' W 073°51'0 0.0
2017-Oct-13 07:29N 40°46' W 073°51'0 0.7
2017-Oct-13 07:00N 40°46' W 073°51'3 4.9
2017-Oct-13 06:28N 40°48' W 073°54'4 8.0
2017-Oct-13 06:00N 40°46' W 073°57'3 6.8
2017-Oct-13 05:30N 40°42' W 073°59'3 6.3
2017-Oct-13 05:00N 40°40' W 074°02'3 5.0
2017-Oct-13 04:30N 40°39' W 074°05'3 6.3
2017-Oct-13 04:00N 40°39' W 074°09'2 3.9
2017-Oct-13 03:30N 40°38' W 074°12'2 3.1
2017-Oct-13 03:00N 40°39' W 074°10'3 5.0
2017-Oct-13 02:30N 40°39' W 074°06'2 4.4
2017-Oct-13 02:00N 40°40' W 074°04'3 5.7
2017-Oct-13 01:30N 40°41' W 074°01'3 5.8
2017-Oct-13 01:00N 40°44' W 073°58'4 7.0
2017-Oct-13 00:29N 40°47' W 073°56'3 5.6
2017-Oct-13 00:00N 40°48' W 073°53'2 4.1
2017-Oct-12 23:30N 40°46' W 073°51'0 0.1
2017-Oct-12 23:00N 40°46' W 073°51'0 0.0
2017-Oct-12 22:30N 40°46' W 073°51'0 0.0
2017-Oct-12 21:59N 40°46' W 073°51'0 0.0
2017-Oct-12 21:30N 40°46' W 073°51'0 0.0
2017-Oct-12 21:00N 40°46' W 073°51'0 0.0
2017-Oct-12 20:30N 40°46' W 073°51'0 0.0
2017-Oct-12 20:00N 40°46' W 073°51'0 0.0
2017-Oct-12 19:30N 40°46' W 073°51'0 0.0
2017-Oct-12 19:00N 40°46' W 073°51'0 0.0
2017-Oct-12 18:30N 40°46' W 073°51'0 0.0
2017-Oct-12 17:59N 40°46' W 073°51'0 0.0
2017-Oct-12 17:29N 40°46' W 073°51'0 0.0
2017-Oct-12 17:00N 40°46' W 073°51'0 0.0
2017-Oct-12 16:30N 40°46' W 073°51'0 0.0
2017-Oct-12 16:00N 40°46' W 073°51'0 0.0
2017-Oct-12 15:28N 40°46' W 073°51'0 0.0
2017-Oct-12 15:00N 40°46' W 073°51'0 0.0
2017-Oct-12 14:28N 40°46' W 073°51'0 0.0
2017-Oct-12 14:00N 40°46' W 073°51'0 0.0
2017-Oct-12 13:29N 40°46' W 073°51'0 0.0
2017-Oct-12 12:59N 40°46' W 073°51'0 0.0
2017-Oct-12 12:30N 40°46' W 073°51'0 0.0
2017-Oct-12 12:00N 40°46' W 073°51'0 0.0
2017-Oct-12 11:30N 40°46' W 073°51'0 0.0
2017-Oct-12 11:00N 40°46' W 073°51'0 0.0
2017-Oct-12 10:30N 40°46' W 073°51'0 0.0
2017-Oct-12 09:59N 40°46' W 073°51'0 0.0
2017-Oct-12 09:30N 40°46' W 073°51'0 0.0
2017-Oct-12 09:00N 40°46' W 073°51'0 0.0
2017-Oct-12 08:30N 40°46' W 073°51'0 0.0
2017-Oct-12 08:00N 40°46' W 073°51'0 0.0
2017-Oct-12 07:24N 40°46' W 073°51'0 0.0
2017-Oct-12 07:00N 40°46' W 073°51'0 0.0
2017-Oct-12 06:30N 40°46' W 073°51'1 2.8
2017-Oct-12 06:00N 40°47' W 073°52'3 5.6
2017-Oct-12 05:27N 40°47' W 073°56'4 7.7
2017-Oct-12 04:59N 40°44' W 073°58'4 7.2
2017-Oct-12 04:30N 40°41' W 074°01'3 5.9
2017-Oct-12 04:00N 40°39' W 074°04'2 4.7
2017-Oct-12 03:30N 40°39' W 074°07'2 4.6
2017-Oct-12 03:00N 40°39' W 074°10'1 2.3
2017-Oct-12 02:30N 40°38' W 074°12'1 2.4
2017-Oct-12 02:00N 40°39' W 074°10'3 5.2
2017-Oct-12 01:30N 40°39' W 074°07'2 4.9
2017-Oct-12 00:59N 40°40' W 074°04'3 5.6
2017-Oct-12 00:30N 40°41' W 074°01'3 5.9
2017-Oct-12 00:00N 40°43' W 073°58'4 7.1
2017-Oct-11 23:29N 40°47' W 073°56'3 5.9
2017-Oct-11 23:00N 40°48' W 073°53'2 3.9
2017-Oct-11 22:30N 40°46' W 073°51'0 0.1
2017-Oct-11 20:43N 40°46' W 073°51'0 0.0
2017-Oct-11 20:30N 40°46' W 073°51'0 0.0
2017-Oct-11 20:00N 40°46' W 073°51'0 0.0
2017-Oct-11 19:30N 40°46' W 073°51'0 0.0
2017-Oct-11 19:00N 40°46' W 073°51'0 0.0
2017-Oct-11 18:30N 40°46' W 073°51'0 0.0
2017-Oct-11 18:00N 40°46' W 073°51'0 0.1
2017-Oct-11 17:30N 40°46' W 073°51'0 0.0
2017-Oct-11 17:00N 40°46' W 073°51'9 0.5
2017-Oct-11 00:00N 40°41' W 074°01'3 5.4
2017-Oct-10 23:30N 40°43' W 073°59'3 6.5
2017-Oct-10 23:00N 40°46' W 073°57'4 6.8
2017-Oct-10 22:29N 40°48' W 073°54'2 4.3
2017-Oct-10 22:00N 40°47' W 073°51'1 1.2
2017-Oct-10 21:30N 40°46' W 073°51'0 0.0
2017-Oct-10 21:00N 40°46' W 073°51'0 0.0
2017-Oct-10 20:30N 40°46' W 073°51'0 0.0
2017-Oct-10 20:00N 40°46' W 073°51'0 0.0
2017-Oct-10 19:30N 40°46' W 073°51'0 0.0
2017-Oct-10 19:00N 40°46' W 073°51'0 0.0
2017-Oct-10 18:30N 40°46' W 073°51'0 0.0
2017-Oct-10 18:00N 40°46' W 073°51'0 0.0
2017-Oct-10 17:30N 40°46' W 073°51'0 0.0
2017-Oct-10 17:00N 40°46' W 073°51'0 0.0
2017-Oct-10 16:30N 40°46' W 073°51'0 0.1
2017-Oct-10 16:00N 40°46' W 073°51'0 0.0
2017-Oct-10 15:11N 40°46' W 073°51'0 0.0
2017-Oct-10 15:00N 40°46' W 073°51'0 0.0
2017-Oct-10 13:59N 40°46' W 073°51'0 0.0
2017-Oct-10 13:30N 40°46' W 073°51'0 0.0
2017-Oct-10 12:58N 40°46' W 073°51'0 0.0
2017-Oct-10 12:09N 40°46' W 073°51'0 0.0
2017-Oct-10 11:57N 40°46' W 073°51'0 0.0
2017-Oct-10 11:30N 40°46' W 073°51'0 0.0
2017-Oct-10 11:00N 40°46' W 073°51'0 0.0
2017-Oct-10 10:30N 40°46' W 073°51'0 0.0
2017-Oct-10 09:59N 40°46' W 073°51'0 0.0
2017-Oct-10 09:30N 40°46' W 073°51'0 0.0
2017-Oct-10 09:00N 40°46' W 073°51'0 0.0
2017-Oct-10 08:30N 40°46' W 073°51'0 0.0
2017-Oct-10 08:00N 40°46' W 073°51'0 0.0
2017-Oct-10 07:30N 40°46' W 073°51'0 0.0
2017-Oct-10 06:59N 40°46' W 073°51'0 0.0
2017-Oct-10 06:30N 40°46' W 073°51'0 0.0
2017-Oct-10 06:00N 40°46' W 073°51'0 0.0
2017-Oct-10 05:30N 40°46' W 073°51'0 0.0
2017-Oct-10 05:00N 40°46' W 073°51'0 0.0
2017-Oct-10 04:29N 40°46' W 073°51'0 0.0
2017-Oct-10 04:00N 40°46' W 073°51'0 0.0
2017-Oct-10 03:30N 40°46' W 073°51'0 0.0
2017-Oct-10 03:00N 40°46' W 073°51'0 0.0
2017-Oct-10 02:30N 40°46' W 073°51'0 0.0
2017-Oct-10 02:00N 40°46' W 073°51'0 0.0
2017-Oct-10 01:30N 40°46' W 073°51'0 0.0
2017-Oct-10 01:00N 40°46' W 073°51'0 0.0
2017-Oct-10 00:30N 40°46' W 073°51'0 0.0
2017-Oct-10 00:00N 40°46' W 073°51'0 0.0
2017-Oct-09 23:30N 40°46' W 073°51'0 0.0
2017-Oct-09 23:00N 40°46' W 073°51'0 0.0
2017-Oct-09 22:30N 40°46' W 073°51'0 0.0
2017-Oct-09 22:00N 40°46' W 073°51'0 0.0
2017-Oct-09 21:30N 40°46' W 073°51'0 0.0
2017-Oct-09 21:00N 40°46' W 073°51'0 0.0
2017-Oct-09 20:30N 40°46' W 073°51'0 0.0
2017-Oct-09 20:00N 40°46' W 073°51'0 0.0
2017-Oct-09 19:30N 40°46' W 073°51'0 0.0
2017-Oct-09 18:57N 40°46' W 073°51'0 0.0
2017-Oct-09 18:23N 40°46' W 073°51'0 0.1
2017-Oct-09 17:59N 40°46' W 073°51'0 0.0
2017-Oct-09 17:30N 40°46' W 073°51'0 0.0
2017-Oct-09 17:00N 40°46' W 073°51'0 0.0
2017-Oct-09 16:30N 40°46' W 073°51'0 0.0
2017-Oct-09 16:00N 40°46' W 073°51'0 0.0
2017-Oct-09 15:30N 40°46' W 073°51'0 0.0
2017-Oct-09 15:00N 40°46' W 073°51'0 0.0
2017-Oct-09 14:28N 40°46' W 073°51'0 0.0
2017-Oct-09 14:00N 40°46' W 073°51'0 0.0
2017-Oct-09 13:21N 40°46' W 073°51'0 0.0
2017-Oct-09 12:58N 40°46' W 073°51'0 0.0
2017-Oct-09 12:29N 40°46' W 073°51'0 0.0
2017-Oct-09 12:00N 40°46' W 073°51'0 0.0
2017-Oct-09 11:30N 40°46' W 073°51'0 0.0
2017-Oct-09 11:00N 40°46' W 073°51'  

Dump ship's entire track history